createdAt,value
2022-12-08T00:01:15.406Z,92.90
2022-12-08T00:03:42.519Z,92.45
2022-12-08T00:06:21.390Z,92.39
2022-12-08T00:08:47.915Z,92.99
2022-12-08T00:11:15.084Z,92.95
2022-12-08T00:13:41.693Z,93.00
2022-12-08T00:16:08.419Z,92.78
2022-12-08T00:18:34.915Z,93.33
2022-12-08T00:21:01.262Z,93.55
2022-12-08T00:23:27.723Z,94.02
2022-12-08T00:25:54.083Z,94.34
2022-12-08T00:28:20.437Z,94.32
2022-12-08T00:30:46.753Z,94.17
2022-12-08T00:33:13.322Z,93.87
2022-12-08T00:35:43.029Z,93.51
2022-12-08T00:38:09.800Z,93.14
2022-12-08T00:40:36.154Z,93.17
2022-12-08T00:43:02.488Z,93.45
2022-12-08T00:45:28.912Z,93.63
2022-12-08T00:47:55.289Z,94.06
2022-12-08T00:50:21.661Z,94.08
2022-12-08T00:52:48.004Z,94.52
2022-12-08T00:55:14.362Z,94.41
2022-12-08T00:57:40.670Z,94.55
2022-12-08T01:00:07.689Z,94.28
2022-12-08T01:02:34.273Z,94.20
2022-12-08T01:05:00.611Z,94.68
2022-12-08T01:07:27.615Z,94.82
2022-12-08T01:09:53.979Z,94.98
2022-12-08T01:12:20.312Z,94.70
2022-12-08T01:14:46.648Z,94.61
2022-12-08T01:17:13.061Z,94.46
2022-12-08T01:19:39.437Z,94.29
2022-12-08T01:22:05.788Z,94.83
2022-12-08T01:24:32.201Z,94.74
2022-12-08T01:26:58.536Z,95.26
2022-12-08T01:29:26.152Z,95.46
2022-12-08T01:31:52.534Z,95.17
2022-12-08T01:34:19.037Z,94.44
2022-12-08T01:36:45.354Z,94.40
2022-12-08T01:39:16.548Z,95.07
2022-12-08T01:41:43.894Z,94.95
2022-12-08T01:44:10.183Z,94.95
2022-12-08T01:46:40.644Z,95.21
2022-12-08T01:49:15.785Z,94.75
2022-12-08T01:51:56.617Z,95.21
2022-12-08T01:54:26.417Z,94.93
2022-12-08T01:57:01.050Z,95.23
2022-12-08T01:59:30.113Z,95.72
2022-12-08T02:01:57.112Z,95.73
2022-12-08T02:04:23.482Z,95.34
2022-12-08T02:06:51.633Z,95.37
2022-12-08T02:09:19.073Z,95.21
2022-12-08T02:11:45.862Z,95.20
2022-12-08T02:14:13.606Z,94.84
2022-12-08T02:17:02.734Z,94.78
2022-12-08T02:19:42.529Z,94.48
2022-12-08T02:22:16.960Z,94.12
2022-12-08T02:25:03.361Z,94.34
2022-12-08T02:27:56.574Z,94.31
2022-12-08T02:30:36.160Z,94.33
2022-12-08T02:33:21.402Z,94.17
2022-12-08T02:35:59.326Z,94.18
2022-12-08T02:39:10.171Z,93.80
2022-12-08T02:41:46.951Z,93.90
2022-12-08T02:44:32.905Z,93.97
2022-12-08T02:47:08.408Z,93.84
2022-12-08T02:49:35.654Z,93.64
2022-12-08T02:52:11.532Z,93.54
2022-12-08T02:54:41.812Z,93.16
2022-12-08T02:57:16.551Z,93.15
2022-12-08T02:59:45.671Z,93.26
2022-12-08T03:02:30.967Z,93.31
2022-12-08T03:05:13.642Z,93.50
2022-12-08T03:07:53.033Z,92.96
2022-12-08T03:10:27.699Z,92.49
2022-12-08T03:13:14.208Z,91.88
2022-12-08T03:15:43.125Z,92.19
2022-12-08T03:18:14.061Z,92.58
2022-12-08T03:20:41.485Z,92.46
2022-12-08T03:23:11.365Z,92.14
2022-12-08T03:25:43.570Z,92.13
2022-12-08T03:28:10.227Z,91.87
2022-12-08T03:30:40.346Z,91.96
2022-12-08T03:33:17.909Z,92.37
2022-12-08T03:35:46.122Z,92.72
2022-12-08T03:38:15.356Z,92.78
2022-12-08T03:40:42.839Z,92.98
2022-12-08T03:43:09.816Z,93.08
2022-12-08T03:45:36.556Z,93.05
2022-12-08T03:48:03.417Z,92.67
2022-12-08T03:50:29.779Z,92.87
2022-12-08T03:52:56.227Z,92.80
2022-12-08T03:55:22.575Z,92.23
2022-12-08T03:57:48.944Z,91.72
2022-12-08T04:00:15.986Z,91.79
2022-12-08T04:02:42.663Z,91.83
2022-12-08T04:05:09.949Z,91.68
2022-12-08T04:07:36.374Z,91.97
2022-12-08T04:10:04.193Z,91.83
2022-12-08T04:12:30.703Z,92.22
2022-12-08T04:14:57.079Z,92.61
2022-12-08T04:17:23.460Z,92.14
2022-12-08T04:19:49.845Z,92.69
2022-12-08T04:22:16.222Z,93.16
2022-12-08T04:24:42.623Z,93.23
2022-12-08T04:27:09.004Z,93.16
2022-12-08T04:29:35.398Z,93.39
2022-12-08T04:32:01.749Z,93.86
2022-12-08T04:34:28.190Z,93.79
2022-12-08T04:36:54.572Z,94.25
2022-12-08T04:39:20.974Z,94.33
2022-12-08T04:41:47.332Z,93.96
2022-12-08T04:44:13.713Z,93.81
2022-12-08T04:46:43.392Z,94.30
2022-12-08T04:49:10.336Z,94.97
2022-12-08T04:51:36.704Z,95.31
2022-12-08T04:54:03.255Z,95.59
2022-12-08T04:56:29.637Z,95.49
2022-12-08T04:58:56.023Z,95.81
2022-12-08T05:01:22.409Z,96.03
2022-12-08T05:03:48.815Z,96.18
2022-12-08T05:06:15.220Z,96.02
2022-12-08T05:08:43.156Z,96.31
2022-12-08T05:11:12.060Z,96.30
2022-12-08T05:13:38.548Z,96.50
2022-12-08T05:16:13.903Z,96.65
2022-12-08T05:18:41.710Z,97.16
2022-12-08T05:21:08.813Z,96.94
2022-12-08T05:23:35.600Z,96.99
2022-12-08T05:26:02.082Z,96.92
2022-12-08T05:28:44.321Z,96.67
2022-12-08T05:31:12.868Z,96.36
2022-12-08T05:33:39.811Z,96.30
2022-12-08T05:36:06.712Z,96.24
2022-12-08T05:38:33.100Z,95.96
2022-12-08T05:40:59.478Z,96.10
2022-12-08T05:43:26.724Z,96.19
2022-12-08T05:45:53.173Z,96.33
2022-12-08T05:48:19.662Z,96.21
2022-12-08T05:50:47.772Z,96.17
2022-12-08T05:53:14.996Z,95.96
2022-12-08T05:56:04.954Z,95.92
2022-12-08T05:58:31.300Z,96.30
2022-12-08T06:00:57.694Z,96.45
2022-12-08T06:03:24.099Z,95.83
2022-12-08T06:05:50.524Z,95.97
2022-12-08T06:08:17.314Z,96.16
2022-12-08T06:10:45.405Z,96.30
2022-12-08T06:16:41.265Z,96.49
2022-12-08T06:19:08.250Z,95.77
2022-12-08T06:21:34.654Z,95.86
2022-12-08T06:24:01.043Z,96.09
2022-12-08T06:26:27.697Z,96.07
2022-12-08T06:28:54.342Z,96.10
2022-12-08T06:31:26.318Z,96.17
2022-12-08T06:33:54.283Z,96.17
2022-12-08T06:36:23.705Z,96.65
2022-12-08T06:38:50.172Z,96.67
2022-12-08T06:41:17.011Z,96.75
2022-12-08T06:43:44.165Z,96.66
2022-12-08T06:46:13.945Z,97.05
2022-12-08T06:48:40.627Z,97.64
2022-12-08T06:51:08.093Z,97.63
2022-12-08T06:53:34.604Z,97.29
2022-12-08T06:56:00.971Z,97.02
2022-12-08T06:58:27.443Z,97.03
2022-12-08T07:00:53.907Z,96.57
2022-12-08T07:03:20.454Z,96.64
2022-12-08T07:05:46.820Z,96.64
2022-12-08T07:08:13.340Z,96.42
2022-12-08T07:10:39.791Z,96.35
2022-12-08T07:13:06.230Z,96.60
2022-12-08T07:15:32.680Z,96.20
2022-12-08T07:18:00.229Z,95.88
2022-12-08T07:20:27.210Z,96.12
2022-12-08T07:22:54.023Z,96.22
2022-12-08T07:25:21.078Z,95.89
2022-12-08T07:27:47.487Z,96.03
2022-12-08T07:30:14.149Z,96.06
2022-12-08T07:32:40.812Z,96.33
2022-12-08T07:35:08.396Z,96.55
2022-12-08T07:37:41.304Z,96.82
2022-12-08T07:40:09.328Z,96.45
2022-12-08T07:42:35.893Z,96.59
2022-12-08T07:45:02.369Z,96.55
2022-12-08T07:47:28.784Z,96.10
2022-12-08T07:49:55.155Z,96.12
2022-12-08T07:52:21.771Z,95.76
2022-12-08T07:54:48.141Z,95.03
2022-12-08T07:57:14.820Z,95.34
2022-12-08T07:59:41.197Z,95.47
2022-12-08T08:02:24.143Z,95.35
2022-12-08T08:04:51.907Z,95.31
2022-12-08T08:07:18.386Z,95.57
2022-12-08T08:09:44.758Z,95.81
2022-12-08T08:12:30.347Z,95.75
2022-12-08T08:14:57.496Z,95.95
2022-12-08T08:17:24.100Z,96.05
2022-12-08T08:19:50.598Z,95.94
2022-12-08T08:22:16.984Z,95.29
2022-12-08T08:24:45.170Z,94.75
2022-12-08T08:27:11.950Z,94.75
2022-12-08T08:29:38.351Z,94.34
2022-12-08T08:32:04.825Z,94.92
2022-12-08T08:34:31.253Z,94.67
2022-12-08T08:36:57.700Z,94.99
2022-12-08T08:39:24.111Z,94.97
2022-12-08T08:41:50.495Z,94.83
2022-12-08T08:44:16.926Z,95.44
2022-12-08T08:46:43.417Z,95.91
2022-12-08T08:49:09.906Z,95.54
2022-12-08T08:51:36.506Z,95.23
2022-12-08T08:54:03.015Z,94.99
2022-12-08T08:56:29.405Z,95.07
2022-12-08T08:58:55.892Z,94.82
2022-12-08T09:01:27.456Z,94.83
2022-12-08T09:03:55.367Z,94.89
2022-12-08T09:06:22.899Z,95.01
2022-12-08T09:08:49.886Z,94.78
2022-12-08T09:11:17.224Z,94.79
2022-12-08T09:13:43.705Z,94.53
2022-12-08T09:16:12.083Z,94.62
2022-12-08T09:18:38.611Z,94.24
2022-12-08T09:21:10.727Z,93.75
2022-12-08T09:23:37.086Z,94.15
2022-12-08T09:26:04.135Z,94.03
2022-12-08T09:28:31.338Z,93.47
2022-12-08T09:30:57.817Z,93.34
2022-12-08T09:33:24.378Z,93.08
2022-12-08T09:35:50.738Z,93.33
2022-12-08T09:38:17.190Z,92.72
2022-12-08T09:40:51.996Z,92.93
2022-12-08T09:43:38.547Z,92.83
2022-12-08T09:46:09.353Z,92.82
2022-12-08T09:48:39.893Z,93.05
2022-12-08T09:51:08.317Z,93.32
2022-12-08T09:53:36.846Z,93.25
2022-12-08T09:56:08.925Z,92.31
2022-12-08T09:58:52.498Z,92.23
2022-12-08T10:01:21.184Z,91.74
2022-12-08T10:03:47.832Z,91.33
2022-12-08T10:06:38.679Z,91.79
2022-12-08T10:09:22.996Z,91.60
2022-12-08T10:12:13.795Z,91.76
2022-12-08T10:14:43.977Z,91.33
2022-12-08T10:17:29.709Z,91.86
2022-12-08T10:20:06.793Z,91.97
2022-12-08T10:22:37.579Z,90.71
2022-12-08T10:25:06.357Z,91.18
2022-12-08T10:27:36.675Z,91.10
2022-12-08T10:30:11.540Z,90.70
2022-12-08T10:32:38.097Z,90.65
2022-12-08T10:35:16.657Z,90.71
2022-12-08T10:37:56.073Z,89.56
2022-12-08T10:40:23.033Z,89.33
2022-12-08T10:42:53.875Z,89.14
2022-12-08T10:45:30.292Z,88.94
2022-12-08T10:48:03.698Z,88.33
2022-12-08T10:50:41.162Z,88.42
2022-12-08T10:53:07.497Z,88.62
2022-12-08T10:55:45.740Z,88.10
2022-12-08T10:58:35.443Z,88.49
2022-12-08T11:01:07.032Z,88.15
2022-12-08T11:03:38.741Z,88.12
2022-12-08T11:06:21.826Z,87.72
2022-12-08T11:08:51.659Z,87.32
2022-12-08T11:11:20.300Z,87.82
2022-12-08T11:13:50.824Z,87.75
2022-12-08T11:16:18.275Z,86.91
2022-12-08T11:18:54.768Z,87.37
2022-12-08T11:21:34.257Z,87.59
2022-12-08T11:24:18.470Z,87.31
2022-12-08T11:27:04.769Z,87.45
2022-12-08T11:29:33.684Z,87.73
2022-12-08T11:32:02.134Z,87.00
2022-12-08T11:34:42.856Z,86.95
2022-12-08T11:37:17.404Z,86.65
2022-12-08T11:39:49.961Z,86.67
2022-12-08T11:42:20.340Z,86.53
2022-12-08T11:44:58.209Z,86.39
2022-12-08T11:47:28.572Z,85.51
2022-12-08T11:50:16.618Z,85.42
2022-12-08T11:52:49.638Z,85.70
2022-12-08T11:55:40.706Z,85.44
2022-12-08T11:58:17.988Z,85.79
2022-12-08T12:00:44.712Z,85.34
2022-12-08T12:03:20.260Z,85.89
2022-12-08T12:08:54.624Z,86.62
2022-12-08T12:11:39.758Z,88.71
2022-12-08T12:14:32.364Z,88.45
2022-12-08T12:17:07.424Z,88.22
2022-12-08T12:19:38.802Z,87.70
2022-12-08T12:22:17.640Z,87.36
2022-12-08T12:24:47.434Z,87.26
2022-12-08T12:27:13.760Z,87.67
2022-12-08T12:29:52.266Z,88.25
2022-12-08T12:32:23.111Z,88.57
2022-12-08T12:34:57.026Z,88.15
2022-12-08T12:37:35.010Z,88.18
2022-12-08T12:40:18.348Z,88.10
2022-12-08T12:42:48.646Z,87.71
2022-12-08T12:45:14.995Z,87.58
2022-12-08T12:47:52.388Z,87.59
2022-12-08T12:50:34.236Z,86.97
2022-12-08T12:53:06.895Z,86.86
2022-12-08T12:56:04.045Z,86.75
2022-12-08T12:58:30.437Z,86.42
2022-12-08T13:01:12.035Z,86.01
2022-12-08T13:03:42.790Z,85.21
2022-12-08T13:06:14.607Z,84.44
2022-12-08T13:08:51.141Z,84.32
2022-12-08T13:11:17.890Z,84.43
2022-12-08T13:13:57.559Z,84.78
2022-12-08T13:16:32.099Z,85.45
2022-12-08T13:19:00.741Z,86.03
2022-12-08T13:21:34.701Z,86.32
2022-12-08T13:24:10.119Z,85.86
2022-12-08T13:27:03.738Z,85.06
2022-12-08T13:29:35.344Z,85.10
2022-12-08T13:32:22.956Z,85.12
2022-12-08T13:34:57.594Z,85.75
2022-12-08T13:37:30.607Z,86.14
2022-12-08T13:40:20.617Z,85.62
2022-12-08T13:43:06.133Z,86.25
2022-12-08T13:46:20.218Z,86.44
2022-12-08T13:49:18.518Z,85.80
2022-12-08T13:57:26.336Z,87.10
2022-12-08T13:59:52.924Z,87.04
2022-12-08T14:02:25.384Z,87.10
2022-12-08T14:07:40.904Z,87.29
2022-12-08T14:10:10.329Z,87.87
2022-12-08T14:12:37.368Z,88.27
2022-12-08T14:15:06.570Z,88.29
2022-12-08T14:17:34.781Z,89.33
2022-12-08T14:20:22.317Z,88.98
2022-12-08T14:22:48.975Z,88.88
2022-12-08T14:25:16.803Z,89.24
2022-12-08T14:27:43.886Z,88.96
2022-12-08T14:30:13.457Z,89.10
2022-12-08T14:32:50.755Z,88.79
2022-12-08T14:35:30.626Z,89.93
2022-12-08T14:38:00.090Z,89.72
2022-12-08T14:40:29.585Z,89.69
2022-12-08T14:43:08.289Z,90.28
2022-12-08T14:46:00.195Z,90.73
2022-12-08T14:48:35.683Z,91.00
2022-12-08T14:51:20.466Z,91.23
2022-12-08T14:54:08.289Z,90.87
2022-12-08T14:56:46.968Z,91.05
2022-12-08T14:59:15.378Z,91.51
2022-12-08T15:01:43.823Z,92.06
2022-12-08T15:04:22.870Z,91.98
2022-12-08T15:07:06.447Z,92.65
2022-12-08T15:09:38.180Z,93.04
2022-12-08T15:12:24.710Z,93.57
2022-12-08T15:15:14.273Z,93.58
2022-12-08T15:17:43.700Z,94.18
2022-12-08T15:20:44.491Z,94.45
2022-12-08T15:23:39.017Z,94.54
2022-12-08T15:26:05.786Z,94.46
2022-12-08T15:28:32.327Z,94.61
2022-12-08T15:30:59.209Z,95.18
2022-12-08T15:33:26.353Z,95.13
2022-12-08T15:35:53.536Z,94.84
2022-12-08T15:38:26.753Z,94.18
2022-12-08T15:40:54.221Z,93.85
2022-12-08T15:43:21.933Z,93.45
2022-12-08T15:45:58.568Z,93.25
2022-12-08T15:48:29.696Z,93.81
2022-12-08T15:50:56.676Z,94.39
2022-12-08T15:53:23.551Z,94.36
2022-12-08T15:56:19.047Z,94.58
2022-12-08T15:58:55.109Z,95.10
2022-12-08T16:01:23.362Z,95.48
2022-12-08T16:09:30.668Z,96.30
2022-12-08T16:12:06.405Z,96.21
2022-12-08T16:15:39.788Z,96.40
2022-12-08T16:17:20.714Z,96.23
2022-12-08T16:19:47.013Z,96.25
2022-12-08T16:25:18.189Z,96.18
2022-12-08T16:28:08.394Z,96.31
2022-12-08T16:30:31.527Z,95.99
2022-12-08T16:32:57.970Z,96.02
2022-12-08T16:35:24.286Z,96.29
2022-12-08T16:37:51.008Z,96.37
2022-12-08T16:40:17.415Z,96.36
2022-12-08T16:42:43.975Z,96.45
2022-12-08T16:45:13.777Z,96.69
2022-12-08T16:48:06.370Z,96.52
2022-12-08T16:50:34.831Z,96.65
2022-12-08T16:53:06.699Z,96.92
2022-12-08T16:55:34.528Z,97.19
2022-12-08T16:58:01.306Z,97.28
2022-12-08T17:00:29.628Z,97.15
2022-12-08T17:02:56.364Z,97.12
2022-12-08T17:05:25.041Z,96.89
2022-12-08T17:07:53.098Z,96.81
2022-12-08T17:10:25.181Z,96.80
2022-12-08T17:12:52.171Z,96.90
2022-12-08T17:15:21.598Z,97.30
2022-12-08T17:17:48.507Z,97.33
2022-12-08T17:20:17.464Z,97.72
2022-12-08T17:22:44.232Z,98.26
2022-12-08T17:25:11.145Z,98.49
2022-12-08T17:27:38.941Z,98.30
2022-12-08T17:30:07.247Z,98.29
2022-12-08T17:32:33.887Z,98.40
2022-12-08T17:35:00.315Z,98.33
2022-12-08T17:37:26.690Z,98.08
2022-12-08T17:39:53.043Z,96.39
2022-12-08T17:42:19.417Z,95.32
2022-12-08T17:44:45.778Z,95.16
2022-12-08T17:47:12.167Z,95.70
2022-12-08T17:49:38.761Z,96.26
2022-12-08T17:52:05.666Z,96.58
2022-12-08T17:54:33.003Z,96.48
2022-12-08T17:57:00.149Z,96.28
2022-12-08T17:59:28.021Z,96.30
2022-12-08T18:01:56.894Z,96.03
2022-12-08T18:04:25.335Z,95.90
2022-12-08T18:06:52.902Z,95.75
2022-12-08T18:09:23.072Z,95.96
2022-12-08T18:11:49.466Z,96.01
2022-12-08T18:14:16.375Z,96.35
2022-12-08T18:16:47.383Z,96.39
2022-12-08T18:19:14.900Z,96.41
2022-12-08T18:21:42.245Z,96.82
2022-12-08T18:24:15.375Z,96.73
2022-12-08T18:26:41.833Z,96.61
2022-12-08T18:29:08.174Z,96.71
2022-12-08T18:31:34.547Z,96.77
2022-12-08T18:34:00.873Z,96.87
2022-12-08T18:36:27.238Z,97.02
2022-12-08T18:38:53.914Z,97.45
2022-12-08T18:41:23.467Z,97.14
2022-12-08T18:43:50.008Z,97.10
2022-12-08T18:46:16.473Z,96.78
2022-12-08T18:48:45.892Z,97.03
2022-12-08T18:51:18.268Z,96.71
2022-12-08T18:53:45.327Z,96.76
2022-12-08T18:56:25.776Z,96.74
2022-12-08T18:58:52.958Z,96.75
2022-12-08T19:01:19.494Z,96.63
2022-12-08T19:04:12.050Z,96.60
2022-12-08T19:06:32.707Z,96.39
2022-12-08T19:08:59.062Z,96.60
2022-12-08T19:11:27.866Z,96.01
2022-12-08T19:13:54.942Z,95.74
2022-12-08T19:16:22.442Z,95.67
2022-12-08T19:18:49.030Z,96.18
2022-12-08T19:21:15.465Z,96.38
2022-12-08T19:23:42.342Z,96.45
2022-12-08T19:26:08.830Z,96.44
2022-12-08T19:28:35.242Z,96.48
2022-12-08T19:31:09.737Z,96.45
2022-12-08T19:33:36.762Z,96.69
2022-12-08T19:36:07.934Z,97.11
2022-12-08T19:38:34.423Z,97.15
2022-12-08T19:41:01.264Z,97.60
2022-12-08T19:43:27.677Z,98.07
2022-12-08T19:45:54.613Z,98.19
2022-12-08T19:48:21.045Z,98.64
2022-12-08T19:50:47.485Z,98.53
2022-12-08T19:53:15.176Z,99.04
2022-12-08T19:55:43.308Z,99.20
2022-12-08T19:58:10.490Z,98.99
2022-12-08T20:00:38.623Z,98.76
2022-12-08T20:03:05.757Z,98.79
2022-12-08T20:05:33.682Z,98.62
2022-12-08T20:08:00.104Z,98.63
2022-12-08T20:10:29.620Z,98.58
2022-12-08T20:12:56.632Z,98.30
2022-12-08T20:15:23.064Z,97.94
2022-12-08T20:17:49.461Z,98.01
2022-12-08T20:20:16.104Z,97.86
2022-12-08T20:22:42.577Z,97.62
2022-12-08T20:25:12.715Z,97.62
2022-12-08T20:27:39.685Z,97.88
2022-12-08T20:30:09.469Z,97.94
2022-12-08T20:32:38.353Z,98.20
2022-12-08T20:35:05.277Z,98.21
2022-12-08T20:37:31.927Z,97.89
2022-12-08T20:39:58.380Z,98.37
2022-12-08T20:42:24.804Z,98.33
2022-12-08T20:44:51.147Z,98.64
2022-12-08T20:47:18.033Z,98.84
2022-12-08T20:49:44.754Z,99.01
2022-12-08T20:52:11.127Z,99.01
2022-12-08T20:54:37.652Z,99.29
2022-12-08T20:57:04.133Z,99.53
2022-12-08T20:59:30.522Z,99.45
2022-12-08T21:01:57.552Z,99.26
2022-12-08T21:04:24.173Z,99.08
2022-12-08T21:06:50.897Z,99.29
2022-12-08T21:09:17.678Z,99.34
2022-12-08T21:11:44.479Z,98.79
2022-12-08T21:14:11.116Z,98.09
2022-12-08T21:16:38.822Z,98.21
2022-12-08T21:19:06.237Z,98.51
2022-12-08T21:21:32.982Z,99.32
2022-12-08T21:23:59.413Z,99.25
2022-12-08T21:26:25.834Z,99.71
2022-12-08T21:28:53.422Z,99.86
2022-12-08T21:31:20.436Z,99.68
2022-12-08T21:33:47.906Z,99.54
2022-12-08T21:36:17.756Z,99.50
2022-12-08T21:38:44.630Z,99.14
2022-12-08T21:41:14.853Z,98.63
2022-12-08T21:43:42.462Z,98.12
2022-12-08T21:46:16.035Z,98.58
2022-12-08T21:48:42.707Z,99.38
2022-12-08T21:51:09.281Z,99.99
2022-12-08T21:53:35.801Z,100.00
2022-12-08T21:56:02.281Z,100.00
2022-12-08T21:58:28.906Z,100.00
2022-12-08T22:00:55.577Z,100.00
2022-12-08T22:03:22.117Z,100.00
2022-12-08T22:05:48.726Z,100.00
2022-12-08T22:08:15.342Z,100.00
2022-12-08T22:10:46.967Z,100.00
2022-12-08T22:13:13.565Z,100.00
2022-12-08T22:15:40.238Z,100.00
2022-12-08T22:18:06.948Z,100.00
2022-12-08T22:20:33.421Z,100.00
2022-12-08T22:23:00.152Z,100.00
2022-12-08T22:25:26.846Z,100.00
2022-12-08T22:27:53.563Z,100.00
2022-12-08T22:30:20.101Z,100.00
2022-12-08T22:32:46.721Z,100.00
2022-12-08T22:35:13.307Z,100.00
2022-12-08T22:37:39.866Z,100.00
2022-12-08T22:40:07.531Z,100.00
2022-12-08T22:42:34.306Z,100.00
2022-12-08T22:45:00.822Z,100.00
2022-12-08T22:47:27.436Z,100.00
2022-12-08T22:49:53.978Z,100.00
2022-12-08T22:52:20.502Z,100.00
2022-12-08T22:54:47.334Z,100.00
2022-12-08T22:57:13.739Z,100.00
2022-12-08T22:59:40.078Z,100.00
2022-12-08T23:02:07.861Z,100.00
2022-12-08T23:04:35.718Z,100.00
2022-12-08T23:07:02.781Z,100.00
2022-12-08T23:09:29.441Z,100.00
2022-12-08T23:11:55.879Z,100.00
2022-12-08T23:14:22.299Z,100.00
2022-12-08T23:16:48.799Z,100.00
2022-12-08T23:19:15.304Z,100.00
2022-12-08T23:21:41.749Z,100.00
2022-12-08T23:24:08.141Z,100.00
2022-12-08T23:26:34.564Z,100.00
2022-12-08T23:29:01.732Z,100.00
2022-12-08T23:31:28.550Z,100.00
2022-12-08T23:33:54.970Z,100.00
2022-12-08T23:36:23.490Z,100.00
2022-12-08T23:38:49.861Z,100.00
2022-12-08T23:41:16.575Z,99.59
2022-12-08T23:43:46.277Z,99.49
2022-12-08T23:46:14.398Z,99.39
2022-12-08T23:48:41.184Z,99.65
2022-12-08T23:51:08.318Z,99.44
2022-12-08T23:53:34.880Z,99.14
2022-12-08T23:56:13.292Z,98.79
2022-12-08T23:58:41.084Z,98.36
